sensor_id;sensor_type;location;lat;lon;timestamp;P1;durP1;ratioP1;P2;durP2;ratioP2
11699;SDS011;5906;51.660;6.674;2024-03-08T00:00:52;29.17;;;19.30;;
11699;SDS011;5906;51.660;6.674;2024-03-08T00:03:19;29.70;;;18.93;;
11699;SDS011;5906;51.660;6.674;2024-03-08T00:05:46;37.97;;;17.70;;
11699;SDS011;5906;51.660;6.674;2024-03-08T00:08:13;28.03;;;18.63;;
11699;SDS011;5906;51.660;6.674;2024-03-08T00:10:40;30.63;;;20.63;;
11699;SDS011;5906;51.660;6.674;2024-03-08T00:13:07;32.30;;;19.50;;
11699;SDS011;5906;51.660;6.674;2024-03-08T00:15:34;32.13;;;19.87;;
11699;SDS011;5906;51.660;6.674;2024-03-08T00:18:01;31.37;;;19.60;;
11699;SDS011;5906;51.660;6.674;2024-03-08T00:20:28;34.43;;;22.00;;
11699;SDS011;5906;51.660;6.674;2024-03-08T00:22:55;30.40;;;18.83;;
11699;SDS011;5906;51.660;6.674;2024-03-08T00:25:24;28.13;;;20.30;;
11699;SDS011;5906;51.660;6.674;2024-03-08T00:31:39;35.93;;;20.60;;
11699;SDS011;5906;51.660;6.674;2024-03-08T00:34:06;30.63;;;18.80;;
11699;SDS011;5906;51.660;6.674;2024-03-08T00:36:33;36.00;;;21.70;;
11699;SDS011;5906;51.660;6.674;2024-03-08T00:39:00;30.97;;;21.47;;
11699;SDS011;5906;51.660;6.674;2024-03-08T00:41:28;30.83;;;19.23;;
11699;SDS011;5906;51.660;6.674;2024-03-08T00:43:55;40.20;;;21.10;;
11699;SDS011;5906;51.660;6.674;2024-03-08T00:46:22;33.17;;;22.27;;
11699;SDS011;5906;51.660;6.674;2024-03-08T00:48:49;31.27;;;19.40;;
11699;SDS011;5906;51.660;6.674;2024-03-08T00:51:16;37.37;;;22.13;;
11699;SDS011;5906;51.660;6.674;2024-03-08T00:53:43;44.13;;;19.60;;
11699;SDS011;5906;51.660;6.674;2024-03-08T00:56:10;30.37;;;18.97;;
11699;SDS011;5906;51.660;6.674;2024-03-08T00:58:39;36.43;;;22.70;;
11699;SDS011;5906;51.660;6.674;2024-03-08T01:01:06;37.50;;;21.93;;
11699;SDS011;5906;51.660;6.674;2024-03-08T01:03:33;35.77;;;21.00;;
11699;SDS011;5906;51.660;6.674;2024-03-08T01:06:01;32.77;;;20.37;;
11699;SDS011;5906;51.660;6.674;2024-03-08T01:08:28;29.50;;;19.40;;
11699;SDS011;5906;51.660;6.674;2024-03-08T01:10:55;34.10;;;22.00;;
11699;SDS011;5906;51.660;6.674;2024-03-08T01:13:22;31.77;;;20.57;;
11699;SDS011;5906;51.660;6.674;2024-03-08T01:15:49;41.47;;;21.00;;
11699;SDS011;5906;51.660;6.674;2024-03-08T01:18:16;34.93;;;21.43;;
11699;SDS011;5906;51.660;6.674;2024-03-08T01:20:43;32.20;;;20.40;;
11699;SDS011;5906;51.660;6.674;2024-03-08T01:23:10;32.00;;;21.67;;
11699;SDS011;5906;51.660;6.674;2024-03-08T01:25:38;33.90;;;20.77;;
11699;SDS011;5906;51.660;6.674;2024-03-08T01:28:05;32.93;;;20.07;;
11699;SDS011;5906;51.660;6.674;2024-03-08T01:30:32;34.23;;;21.70;;
11699;SDS011;5906;51.660;6.674;2024-03-08T01:33:01;33.13;;;20.17;;
11699;SDS011;5906;51.660;6.674;2024-03-08T01:35:28;34.20;;;21.20;;
11699;SDS011;5906;51.660;6.674;2024-03-08T01:37:55;39.30;;;23.90;;
11699;SDS011;5906;51.660;6.674;2024-03-08T01:40:21;38.70;;;23.33;;
11699;SDS011;5906;51.660;6.674;2024-03-08T01:42:49;37.90;;;20.90;;
11699;SDS011;5906;51.660;6.674;2024-03-08T01:45:16;31.73;;;21.23;;
11699;SDS011;5906;51.660;6.674;2024-03-08T01:47:43;34.00;;;20.87;;
11699;SDS011;5906;51.660;6.674;2024-03-08T01:50:10;37.63;;;22.57;;
11699;SDS011;5906;51.660;6.674;2024-03-08T01:52:37;33.63;;;22.63;;
11699;SDS011;5906;51.660;6.674;2024-03-08T01:55:04;37.10;;;23.90;;
11699;SDS011;5906;51.660;6.674;2024-03-08T01:57:34;36.83;;;22.17;;
11699;SDS011;5906;51.660;6.674;2024-03-08T02:00:02;31.97;;;21.67;;
11699;SDS011;5906;51.660;6.674;2024-03-08T02:02:32;34.70;;;20.60;;
11699;SDS011;5906;51.660;6.674;2024-03-08T02:05:03;34.53;;;23.23;;
11699;SDS011;5906;51.660;6.674;2024-03-08T02:07:32;37.43;;;21.87;;
11699;SDS011;5906;51.660;6.674;2024-03-08T02:09:58;35.97;;;20.80;;
11699;SDS011;5906;51.660;6.674;2024-03-08T02:12:27;35.50;;;22.10;;
11699;SDS011;5906;51.660;6.674;2024-03-08T02:14:55;33.60;;;21.87;;
11699;SDS011;5906;51.660;6.674;2024-03-08T02:17:22;31.20;;;20.00;;
11699;SDS011;5906;51.660;6.674;2024-03-08T02:19:49;33.70;;;22.83;;
11699;SDS011;5906;51.660;6.674;2024-03-08T02:22:16;35.97;;;22.90;;
11699;SDS011;5906;51.660;6.674;2024-03-08T02:24:43;37.43;;;23.50;;
11699;SDS011;5906;51.660;6.674;2024-03-08T02:27:11;36.43;;;20.73;;
11699;SDS011;5906;51.660;6.674;2024-03-08T02:29:38;34.63;;;22.80;;
11699;SDS011;5906;51.660;6.674;2024-03-08T02:32:07;34.33;;;21.27;;
11699;SDS011;5906;51.660;6.674;2024-03-08T02:34:34;36.73;;;22.00;;
11699;SDS011;5906;51.660;6.674;2024-03-08T02:37:01;38.33;;;21.37;;
11699;SDS011;5906;51.660;6.674;2024-03-08T02:39:28;37.60;;;23.00;;
11699;SDS011;5906;51.660;6.674;2024-03-08T02:41:55;36.53;;;21.73;;
11699;SDS011;5906;51.660;6.674;2024-03-08T02:44:22;34.80;;;19.20;;
11699;SDS011;5906;51.660;6.674;2024-03-08T02:46:49;31.87;;;21.60;;
11699;SDS011;5906;51.660;6.674;2024-03-08T02:49:16;36.47;;;22.40;;
11699;SDS011;5906;51.660;6.674;2024-03-08T02:51:43;34.87;;;21.23;;
11699;SDS011;5906;51.660;6.674;2024-03-08T02:54:12;31.90;;;22.47;;
11699;SDS011;5906;51.660;6.674;2024-03-08T02:56:39;36.00;;;22.30;;
11699;SDS011;5906;51.660;6.674;2024-03-08T02:59:07;36.93;;;21.97;;
11699;SDS011;5906;51.660;6.674;2024-03-08T03:01:34;32.83;;;20.63;;
11699;SDS011;5906;51.660;6.674;2024-03-08T03:04:03;36.57;;;23.13;;
11699;SDS011;5906;51.660;6.674;2024-03-08T03:06:30;37.00;;;23.60;;
11699;SDS011;5906;51.660;6.674;2024-03-08T03:08:57;30.87;;;21.47;;
11699;SDS011;5906;51.660;6.674;2024-03-08T03:11:24;38.50;;;21.20;;
11699;SDS011;5906;51.660;6.674;2024-03-08T03:13:52;39.33;;;22.70;;
11699;SDS011;5906;51.660;6.674;2024-03-08T03:16:19;37.73;;;21.77;;
11699;SDS011;5906;51.660;6.674;2024-03-08T03:18:47;35.03;;;22.30;;
11699;SDS011;5906;51.660;6.674;2024-03-08T03:21:14;33.93;;;21.93;;
11699;SDS011;5906;51.660;6.674;2024-03-08T03:23:42;36.50;;;20.43;;
11699;SDS011;5906;51.660;6.674;2024-03-08T03:26:09;33.70;;;21.40;;
11699;SDS011;5906;51.660;6.674;2024-03-08T03:28:39;35.43;;;21.53;;
11699;SDS011;5906;51.660;6.674;2024-03-08T03:31:06;36.33;;;21.40;;
11699;SDS011;5906;51.660;6.674;2024-03-08T03:33:36;34.00;;;21.00;;
11699;SDS011;5906;51.660;6.674;2024-03-08T03:36:03;33.10;;;20.87;;
11699;SDS011;5906;51.660;6.674;2024-03-08T03:38:31;29.80;;;19.90;;
11699;SDS011;5906;51.660;6.674;2024-03-08T03:41:01;37.20;;;22.90;;
11699;SDS011;5906;51.660;6.674;2024-03-08T03:43:37;40.67;;;23.43;;
11699;SDS011;5906;51.660;6.674;2024-03-08T03:46:06;36.80;;;22.57;;
11699;SDS011;5906;51.660;6.674;2024-03-08T03:48:33;35.30;;;22.73;;
11699;SDS011;5906;51.660;6.674;2024-03-08T03:51:00;34.70;;;22.70;;
11699;SDS011;5906;51.660;6.674;2024-03-08T03:53:28;34.37;;;21.17;;
11699;SDS011;5906;51.660;6.674;2024-03-08T03:55:54;39.10;;;23.90;;
11699;SDS011;5906;51.660;6.674;2024-03-08T03:58:21;35.70;;;22.67;;
11699;SDS011;5906;51.660;6.674;2024-03-08T04:00:49;36.13;;;23.07;;
11699;SDS011;5906;51.660;6.674;2024-03-08T04:03:16;37.37;;;23.20;;
11699;SDS011;5906;51.660;6.674;2024-03-08T04:05:43;31.60;;;20.70;;
11699;SDS011;5906;51.660;6.674;2024-03-08T04:08:12;38.47;;;23.60;;
11699;SDS011;5906;51.660;6.674;2024-03-08T04:10:39;42.53;;;23.07;;
11699;SDS011;5906;51.660;6.674;2024-03-08T04:13:08;38.43;;;21.50;;
11699;SDS011;5906;51.660;6.674;2024-03-08T04:15:35;38.70;;;24.87;;
11699;SDS011;5906;51.660;6.674;2024-03-08T04:18:04;42.50;;;24.40;;
11699;SDS011;5906;51.660;6.674;2024-03-08T04:20:31;35.90;;;23.17;;
11699;SDS011;5906;51.660;6.674;2024-03-08T04:22:58;34.20;;;21.37;;
11699;SDS011;5906;51.660;6.674;2024-03-08T04:25:26;38.20;;;22.33;;
11699;SDS011;5906;51.660;6.674;2024-03-08T04:27:53;38.67;;;23.00;;
11699;SDS011;5906;51.660;6.674;2024-03-08T04:30:20;36.33;;;22.33;;
11699;SDS011;5906;51.660;6.674;2024-03-08T04:32:48;44.50;;;23.70;;
11699;SDS011;5906;51.660;6.674;2024-03-08T04:35:15;33.17;;;23.13;;
11699;SDS011;5906;51.660;6.674;2024-03-08T04:37:42;41.20;;;22.60;;
11699;SDS011;5906;51.660;6.674;2024-03-08T04:40:09;39.70;;;22.30;;
11699;SDS011;5906;51.660;6.674;2024-03-08T04:42:37;33.90;;;21.83;;
11699;SDS011;5906;51.660;6.674;2024-03-08T04:45:06;37.17;;;21.97;;
11699;SDS011;5906;51.660;6.674;2024-03-08T04:47:35;40.23;;;23.93;;
11699;SDS011;5906;51.660;6.674;2024-03-08T04:50:03;37.37;;;20.90;;
11699;SDS011;5906;51.660;6.674;2024-03-08T04:52:30;35.70;;;22.97;;
11699;SDS011;5906;51.660;6.674;2024-03-08T04:54:57;40.03;;;23.30;;
11699;SDS011;5906;51.660;6.674;2024-03-08T04:57:24;43.07;;;21.70;;
11699;SDS011;5906;51.660;6.674;2024-03-08T04:59:52;40.17;;;23.63;;
11699;SDS011;5906;51.660;6.674;2024-03-08T05:02:20;36.57;;;23.50;;
11699;SDS011;5906;51.660;6.674;2024-03-08T05:04:49;34.37;;;21.17;;
11699;SDS011;5906;51.660;6.674;2024-03-08T05:07:16;35.20;;;22.30;;
11699;SDS011;5906;51.660;6.674;2024-03-08T05:09:43;36.23;;;21.43;;
11699;SDS011;5906;51.660;6.674;2024-03-08T05:12:18;38.17;;;20.77;;
11699;SDS011;5906;51.660;6.674;2024-03-08T05:14:45;30.20;;;21.27;;
11699;SDS011;5906;51.660;6.674;2024-03-08T05:17:16;41.40;;;23.77;;
11699;SDS011;5906;51.660;6.674;2024-03-08T05:19:44;36.33;;;21.80;;
11699;SDS011;5906;51.660;6.674;2024-03-08T05:22:11;40.10;;;23.67;;
11699;SDS011;5906;51.660;6.674;2024-03-08T05:24:38;35.87;;;23.20;;
11699;SDS011;5906;51.660;6.674;2024-03-08T05:27:05;31.90;;;21.13;;
11699;SDS011;5906;51.660;6.674;2024-03-08T05:29:32;36.87;;;23.70;;
11699;SDS011;5906;51.660;6.674;2024-03-08T05:31:59;36.97;;;22.63;;
11699;SDS011;5906;51.660;6.674;2024-03-08T05:34:27;37.90;;;22.43;;
11699;SDS011;5906;51.660;6.674;2024-03-08T05:36:55;42.93;;;22.40;;
11699;SDS011;5906;51.660;6.674;2024-03-08T05:39:22;34.73;;;21.80;;
11699;SDS011;5906;51.660;6.674;2024-03-08T05:41:50;41.13;;;22.30;;
11699;SDS011;5906;51.660;6.674;2024-03-08T05:44:17;36.03;;;21.67;;
11699;SDS011;5906;51.660;6.674;2024-03-08T05:46:44;37.90;;;23.23;;
11699;SDS011;5906;51.660;6.674;2024-03-08T05:49:13;32.77;;;20.00;;
11699;SDS011;5906;51.660;6.674;2024-03-08T05:51:40;42.17;;;22.77;;
11699;SDS011;5906;51.660;6.674;2024-03-08T05:54:09;40.20;;;23.70;;
11699;SDS011;5906;51.660;6.674;2024-03-08T05:56:40;37.00;;;23.43;;
11699;SDS011;5906;51.660;6.674;2024-03-08T05:59:09;38.37;;;23.93;;
11699;SDS011;5906;51.660;6.674;2024-03-08T06:01:37;45.07;;;25.13;;
11699;SDS011;5906;51.660;6.674;2024-03-08T06:04:07;45.27;;;25.43;;
11699;SDS011;5906;51.660;6.674;2024-03-08T06:06:34;37.50;;;22.63;;
11699;SDS011;5906;51.660;6.674;2024-03-08T06:09:03;44.50;;;25.00;;
11699;SDS011;5906;51.660;6.674;2024-03-08T06:11:38;46.73;;;25.07;;
11699;SDS011;5906;51.660;6.674;2024-03-08T06:14:05;41.57;;;25.70;;
11699;SDS011;5906;51.660;6.674;2024-03-08T06:16:33;45.00;;;25.97;;
11699;SDS011;5906;51.660;6.674;2024-03-08T06:19:00;43.60;;;25.50;;
11699;SDS011;5906;51.660;6.674;2024-03-08T06:21:29;46.10;;;26.60;;
11699;SDS011;5906;51.660;6.674;2024-03-08T06:23:56;46.30;;;25.03;;
11699;SDS011;5906;51.660;6.674;2024-03-08T06:26:25;53.30;;;27.77;;
11699;SDS011;5906;51.660;6.674;2024-03-08T06:28:56;50.30;;;28.27;;
11699;SDS011;5906;51.660;6.674;2024-03-08T06:31:24;44.50;;;26.27;;
11699;SDS011;5906;51.660;6.674;2024-03-08T06:33:51;41.93;;;24.10;;
11699;SDS011;5906;51.660;6.674;2024-03-08T06:36:22;48.83;;;26.40;;
11699;SDS011;5906;51.660;6.674;2024-03-08T06:38:49;44.70;;;27.17;;
11699;SDS011;5906;51.660;6.674;2024-03-08T06:41:17;42.07;;;24.77;;
11699;SDS011;5906;51.660;6.674;2024-03-08T06:43:44;48.00;;;27.00;;
11699;SDS011;5906;51.660;6.674;2024-03-08T06:46:14;51.67;;;27.33;;
11699;SDS011;5906;51.660;6.674;2024-03-08T06:48:42;49.17;;;28.03;;
11699;SDS011;5906;51.660;6.674;2024-03-08T06:51:10;41.90;;;24.53;;
11699;SDS011;5906;51.660;6.674;2024-03-08T06:53:37;45.00;;;26.73;;
11699;SDS011;5906;51.660;6.674;2024-03-08T06:56:05;43.23;;;27.23;;
11699;SDS011;5906;51.660;6.674;2024-03-08T06:58:34;39.57;;;25.63;;
11699;SDS011;5906;51.660;6.674;2024-03-08T07:01:01;45.33;;;25.90;;
11699;SDS011;5906;51.660;6.674;2024-03-08T07:03:31;48.70;;;27.57;;
11699;SDS011;5906;51.660;6.674;2024-03-08T07:05:59;43.23;;;25.00;;
11699;SDS011;5906;51.660;6.674;2024-03-08T07:08:28;50.40;;;27.10;;
11699;SDS011;5906;51.660;6.674;2024-03-08T07:10:55;52.20;;;28.57;;
11699;SDS011;5906;51.660;6.674;2024-03-08T07:13:25;46.20;;;27.70;;
11699;SDS011;5906;51.660;6.674;2024-03-08T07:15:56;41.00;;;24.77;;
11699;SDS011;5906;51.660;6.674;2024-03-08T07:18:25;54.20;;;28.77;;
11699;SDS011;5906;51.660;6.674;2024-03-08T07:20:56;46.87;;;28.53;;
11699;SDS011;5906;51.660;6.674;2024-03-08T07:23:24;48.87;;;27.37;;
11699;SDS011;5906;51.660;6.674;2024-03-08T07:26:09;46.50;;;24.30;;
11699;SDS011;5906;51.660;6.674;2024-03-08T07:28:36;42.40;;;25.93;;
11699;SDS011;5906;51.660;6.674;2024-03-08T07:31:03;48.47;;;27.30;;
11699;SDS011;5906;51.660;6.674;2024-03-08T07:33:44;60.63;;;27.20;;
11699;SDS011;5906;51.660;6.674;2024-03-08T07:36:11;49.23;;;26.77;;
11699;SDS011;5906;51.660;6.674;2024-03-08T07:38:39;47.13;;;27.23;;
11699;SDS011;5906;51.660;6.674;2024-03-08T07:41:06;48.53;;;25.83;;
11699;SDS011;5906;51.660;6.674;2024-03-08T07:43:33;47.43;;;29.17;;
11699;SDS011;5906;51.660;6.674;2024-03-08T07:46:00;46.67;;;25.50;;
11699;SDS011;5906;51.660;6.674;2024-03-08T07:48:27;49.07;;;28.40;;
11699;SDS011;5906;51.660;6.674;2024-03-08T07:50:54;52.27;;;29.67;;
11699;SDS011;5906;51.660;6.674;2024-03-08T07:53:22;53.33;;;28.87;;
11699;SDS011;5906;51.660;6.674;2024-03-08T07:55:51;48.67;;;25.13;;
11699;SDS011;5906;51.660;6.674;2024-03-08T07:58:18;50.17;;;26.77;;
11699;SDS011;5906;51.660;6.674;2024-03-08T08:00:45;44.30;;;26.40;;
11699;SDS011;5906;51.660;6.674;2024-03-08T08:03:12;46.40;;;26.47;;
11699;SDS011;5906;51.660;6.674;2024-03-08T08:05:39;47.03;;;28.87;;
11699;SDS011;5906;51.660;6.674;2024-03-08T08:08:07;47.60;;;26.47;;
11699;SDS011;5906;51.660;6.674;2024-03-08T08:10:37;49.07;;;28.60;;
11699;SDS011;5906;51.660;6.674;2024-03-08T08:13:04;49.10;;;27.03;;
11699;SDS011;5906;51.660;6.674;2024-03-08T08:15:33;43.57;;;26.10;;
11699;SDS011;5906;51.660;6.674;2024-03-08T08:18:00;47.80;;;21.60;;
11699;SDS011;5906;51.660;6.674;2024-03-08T08:20:29;40.33;;;25.23;;
11699;SDS011;5906;51.660;6.674;2024-03-08T08:22:58;46.03;;;25.57;;
11699;SDS011;5906;51.660;6.674;2024-03-08T08:25:25;46.53;;;26.50;;
11699;SDS011;5906;51.660;6.674;2024-03-08T08:27:52;42.93;;;25.10;;
11699;SDS011;5906;51.660;6.674;2024-03-08T08:30:20;43.80;;;25.53;;
11699;SDS011;5906;51.660;6.674;2024-03-08T08:32:47;46.00;;;26.60;;
11699;SDS011;5906;51.660;6.674;2024-03-08T08:35:15;48.60;;;26.70;;
11699;SDS011;5906;51.660;6.674;2024-03-08T08:37:42;51.67;;;29.40;;
11699;SDS011;5906;51.660;6.674;2024-03-08T08:40:09;46.87;;;26.83;;
11699;SDS011;5906;51.660;6.674;2024-03-08T08:42:37;43.87;;;24.10;;
11699;SDS011;5906;51.660;6.674;2024-03-08T08:45:05;44.47;;;26.63;;
11699;SDS011;5906;51.660;6.674;2024-03-08T08:47:43;50.30;;;25.47;;
11699;SDS011;5906;51.660;6.674;2024-03-08T08:50:12;41.73;;;25.80;;
11699;SDS011;5906;51.660;6.674;2024-03-08T08:52:41;46.30;;;25.07;;
11699;SDS011;5906;51.660;6.674;2024-03-08T08:55:11;43.27;;;26.13;;
11699;SDS011;5906;51.660;6.674;2024-03-08T08:57:41;43.03;;;24.50;;
11699;SDS011;5906;51.660;6.674;2024-03-08T09:00:08;40.00;;;24.27;;
11699;SDS011;5906;51.660;6.674;2024-03-08T09:02:41;41.63;;;24.70;;
11699;SDS011;5906;51.660;6.674;2024-03-08T09:05:09;50.33;;;24.83;;
11699;SDS011;5906;51.660;6.674;2024-03-08T09:07:36;46.43;;;23.73;;
11699;SDS011;5906;51.660;6.674;2024-03-08T09:10:04;44.60;;;23.57;;
11699;SDS011;5906;51.660;6.674;2024-03-08T09:12:34;41.10;;;24.43;;
11699;SDS011;5906;51.660;6.674;2024-03-08T09:15:01;41.00;;;24.27;;
11699;SDS011;5906;51.660;6.674;2024-03-08T09:17:28;45.87;;;23.73;;
11699;SDS011;5906;51.660;6.674;2024-03-08T09:19:55;43.87;;;25.80;;
11699;SDS011;5906;51.660;6.674;2024-03-08T09:22:23;35.87;;;22.20;;
11699;SDS011;5906;51.660;6.674;2024-03-08T09:24:51;41.73;;;24.63;;
11699;SDS011;5906;51.660;6.674;2024-03-08T09:27:18;40.83;;;22.33;;
11699;SDS011;5906;51.660;6.674;2024-03-08T09:29:46;34.60;;;21.90;;
11699;SDS011;5906;51.660;6.674;2024-03-08T09:32:13;42.80;;;23.17;;
11699;SDS011;5906;51.660;6.674;2024-03-08T09:34:39;43.00;;;22.90;;
11699;SDS011;5906;51.660;6.674;2024-03-08T09:37:06;37.13;;;22.87;;
11699;SDS011;5906;51.660;6.674;2024-03-08T09:39:35;42.83;;;25.30;;
11699;SDS011;5906;51.660;6.674;2024-03-08T09:42:02;41.83;;;21.73;;
11699;SDS011;5906;51.660;6.674;2024-03-08T09:44:29;37.77;;;21.87;;
11699;SDS011;5906;51.660;6.674;2024-03-08T09:46:57;37.10;;;22.13;;
11699;SDS011;5906;51.660;6.674;2024-03-08T09:49:25;40.10;;;21.87;;
11699;SDS011;5906;51.660;6.674;2024-03-08T09:51:52;38.67;;;21.47;;
11699;SDS011;5906;51.660;6.674;2024-03-08T09:54:19;35.67;;;22.53;;
11699;SDS011;5906;51.660;6.674;2024-03-08T09:56:51;36.83;;;21.30;;
11699;SDS011;5906;51.660;6.674;2024-03-08T09:59:19;36.83;;;21.43;;
11699;SDS011;5906;51.660;6.674;2024-03-08T10:02:08;37.33;;;21.37;;
11699;SDS011;5906;51.660;6.674;2024-03-08T10:04:41;33.70;;;20.73;;
11699;SDS011;5906;51.660;6.674;2024-03-08T10:07:09;36.57;;;20.20;;
11699;SDS011;5906;51.660;6.674;2024-03-08T10:09:38;33.30;;;19.33;;
11699;SDS011;5906;51.660;6.674;2024-03-08T10:12:05;33.87;;;20.00;;
11699;SDS011;5906;51.660;6.674;2024-03-08T10:14:38;34.27;;;20.43;;
11699;SDS011;5906;51.660;6.674;2024-03-08T10:17:05;28.93;;;18.60;;
11699;SDS011;5906;51.660;6.674;2024-03-08T10:19:33;40.93;;;19.83;;
11699;SDS011;5906;51.660;6.674;2024-03-08T10:22:00;34.07;;;18.57;;
11699;SDS011;5906;51.660;6.674;2024-03-08T10:24:27;29.53;;;18.70;;
11699;SDS011;5906;51.660;6.674;2024-03-08T10:27:01;26.53;;;17.30;;
11699;SDS011;5906;51.660;6.674;2024-03-08T10:29:31;30.97;;;18.60;;
11699;SDS011;5906;51.660;6.674;2024-03-08T10:31:59;28.27;;;18.30;;
11699;SDS011;5906;51.660;6.674;2024-03-08T10:34:28;28.80;;;17.77;;
11699;SDS011;5906;51.660;6.674;2024-03-08T10:36:58;32.80;;;18.50;;
11699;SDS011;5906;51.660;6.674;2024-03-08T10:39:34;35.87;;;19.33;;
11699;SDS011;5906;51.660;6.674;2024-03-08T10:42:02;32.13;;;19.53;;
11699;SDS011;5906;51.660;6.674;2024-03-08T10:47:01;28.87;;;19.27;;
11699;SDS011;5906;51.660;6.674;2024-03-08T10:49:32;32.50;;;18.63;;
11699;SDS011;5906;51.660;6.674;2024-03-08T10:52:09;32.43;;;18.57;;
11699;SDS011;5906;51.660;6.674;2024-03-08T10:54:43;34.57;;;20.60;;
11699;SDS011;5906;51.660;6.674;2024-03-08T10:57:13;31.03;;;19.53;;
11699;SDS011;5906;51.660;6.674;2024-03-08T10:59:43;31.27;;;19.23;;
11699;SDS011;5906;51.660;6.674;2024-03-08T11:02:14;31.20;;;19.93;;
11699;SDS011;5906;51.660;6.674;2024-03-08T11:04:46;32.80;;;19.87;;
11699;SDS011;5906;51.660;6.674;2024-03-08T11:07:15;33.70;;;19.30;;
11699;SDS011;5906;51.660;6.674;2024-03-08T11:09:45;32.90;;;19.37;;
11699;SDS011;5906;51.660;6.674;2024-03-08T11:12:29;27.83;;;17.73;;
11699;SDS011;5906;51.660;6.674;2024-03-08T11:15:12;33.63;;;20.70;;
11699;SDS011;5906;51.660;6.674;2024-03-08T11:17:48;35.33;;;20.47;;
11699;SDS011;5906;51.660;6.674;2024-03-08T11:20:16;31.00;;;19.73;;
11699;SDS011;5906;51.660;6.674;2024-03-08T11:25:40;33.30;;;19.90;;
11699;SDS011;5906;51.660;6.674;2024-03-08T11:28:19;37.80;;;21.17;;
11699;SDS011;5906;51.660;6.674;2024-03-08T11:33:29;37.60;;;19.13;;
11699;SDS011;5906;51.660;6.674;2024-03-08T11:38:41;30.40;;;19.33;;
11699;SDS011;5906;51.660;6.674;2024-03-08T11:41:13;32.07;;;20.77;;
11699;SDS011;5906;51.660;6.674;2024-03-08T11:43:44;34.40;;;20.20;;
11699;SDS011;5906;51.660;6.674;2024-03-08T11:46:12;31.30;;;19.93;;
11699;SDS011;5906;51.660;6.674;2024-03-08T11:48:42;29.00;;;17.97;;
11699;SDS011;5906;51.660;6.674;2024-03-08T11:51:12;30.53;;;19.57;;
11699;SDS011;5906;51.660;6.674;2024-03-08T11:53:41;36.50;;;20.63;;
11699;SDS011;5906;51.660;6.674;2024-03-08T11:56:14;32.70;;;19.00;;
11699;SDS011;5906;51.660;6.674;2024-03-08T11:58:52;28.47;;;17.37;;
11699;SDS011;5906;51.660;6.674;2024-03-08T12:01:20;35.47;;;19.90;;
11699;SDS011;5906;51.660;6.674;2024-03-08T12:03:52;34.53;;;20.03;;
11699;SDS011;5906;51.660;6.674;2024-03-08T12:06:19;27.97;;;18.03;;
11699;SDS011;5906;51.660;6.674;2024-03-08T12:08:47;30.40;;;18.97;;
11699;SDS011;5906;51.660;6.674;2024-03-08T12:11:17;30.50;;;19.77;;
11699;SDS011;5906;51.660;6.674;2024-03-08T12:13:49;30.93;;;18.93;;
11699;SDS011;5906;51.660;6.674;2024-03-08T12:16:18;30.77;;;19.50;;
11699;SDS011;5906;51.660;6.674;2024-03-08T12:18:47;28.23;;;19.07;;
11699;SDS011;5906;51.660;6.674;2024-03-08T12:21:15;32.00;;;18.87;;
11699;SDS011;5906;51.660;6.674;2024-03-08T12:23:46;31.73;;;18.40;;
11699;SDS011;5906;51.660;6.674;2024-03-08T12:26:24;36.53;;;20.03;;
11699;SDS011;5906;51.660;6.674;2024-03-08T12:28:52;34.23;;;18.80;;
11699;SDS011;5906;51.660;6.674;2024-03-08T12:31:20;28.93;;;17.80;;
11699;SDS011;5906;51.660;6.674;2024-03-08T12:33:52;30.67;;;19.07;;
11699;SDS011;5906;51.660;6.674;2024-03-08T12:36:23;32.03;;;19.50;;
11699;SDS011;5906;51.660;6.674;2024-03-08T12:38:50;30.23;;;19.43;;
11699;SDS011;5906;51.660;6.674;2024-03-08T12:41:20;33.40;;;19.30;;
11699;SDS011;5906;51.660;6.674;2024-03-08T12:43:50;31.57;;;19.33;;
11699;SDS011;5906;51.660;6.674;2024-03-08T12:46:17;29.60;;;18.73;;
11699;SDS011;5906;51.660;6.674;2024-03-08T12:48:48;32.27;;;18.57;;
11699;SDS011;5906;51.660;6.674;2024-03-08T12:51:18;32.27;;;18.00;;
11699;SDS011;5906;51.660;6.674;2024-03-08T12:53:46;30.07;;;18.23;;
11699;SDS011;5906;51.660;6.674;2024-03-08T12:56:15;31.30;;;19.20;;
11699;SDS011;5906;51.660;6.674;2024-03-08T12:58:54;32.47;;;18.50;;
11699;SDS011;5906;51.660;6.674;2024-03-08T13:01:21;23.37;;;15.90;;
11699;SDS011;5906;51.660;6.674;2024-03-08T13:03:49;26.60;;;18.00;;
11699;SDS011;5906;51.660;6.674;2024-03-08T13:06:19;31.20;;;18.00;;
11699;SDS011;5906;51.660;6.674;2024-03-08T13:08:51;28.93;;;17.53;;
11699;SDS011;5906;51.660;6.674;2024-03-08T13:11:19;35.00;;;18.03;;
11699;SDS011;5906;51.660;6.674;2024-03-08T13:13:47;28.10;;;17.07;;
11699;SDS011;5906;51.660;6.674;2024-03-08T13:16:14;30.67;;;17.73;;
11699;SDS011;5906;51.660;6.674;2024-03-08T13:18:41;27.20;;;17.83;;
11699;SDS011;5906;51.660;6.674;2024-03-08T13:21:08;28.60;;;18.60;;
11699;SDS011;5906;51.660;6.674;2024-03-08T13:23:37;26.00;;;16.93;;
11699;SDS011;5906;51.660;6.674;2024-03-08T13:26:07;28.53;;;16.93;;
11699;SDS011;5906;51.660;6.674;2024-03-08T13:28:50;30.60;;;18.30;;
11699;SDS011;5906;51.660;6.674;2024-03-08T13:31:24;27.90;;;16.83;;
11699;SDS011;5906;51.660;6.674;2024-03-08T13:33:52;25.70;;;17.07;;
11699;SDS011;5906;51.660;6.674;2024-03-08T13:36:24;27.37;;;16.90;;
11699;SDS011;5906;51.660;6.674;2024-03-08T13:38:55;29.70;;;17.80;;
11699;SDS011;5906;51.660;6.674;2024-03-08T13:41:28;25.30;;;16.33;;
11699;SDS011;5906;51.660;6.674;2024-03-08T13:43:58;29.80;;;18.30;;
11699;SDS011;5906;51.660;6.674;2024-03-08T13:46:25;28.50;;;17.50;;
11699;SDS011;5906;51.660;6.674;2024-03-08T13:48:53;27.07;;;16.97;;
11699;SDS011;5906;51.660;6.674;2024-03-08T13:51:20;32.63;;;18.43;;
11699;SDS011;5906;51.660;6.674;2024-03-08T13:53:49;25.70;;;16.40;;
11699;SDS011;5906;51.660;6.674;2024-03-08T13:56:15;28.40;;;17.00;;
11699;SDS011;5906;51.660;6.674;2024-03-08T13:58:42;23.37;;;15.93;;
11699;SDS011;5906;51.660;6.674;2024-03-08T14:01:10;28.83;;;16.93;;
11699;SDS011;5906;51.660;6.674;2024-03-08T14:03:38;25.53;;;16.77;;
11699;SDS011;5906;51.660;6.674;2024-03-08T14:06:08;25.97;;;17.10;;
11699;SDS011;5906;51.660;6.674;2024-03-08T14:08:36;26.30;;;16.97;;
11699;SDS011;5906;51.660;6.674;2024-03-08T14:11:05;25.57;;;15.70;;
11699;SDS011;5906;51.660;6.674;2024-03-08T14:13:40;23.67;;;14.90;;
11699;SDS011;5906;51.660;6.674;2024-03-08T14:16:14;27.53;;;17.20;;
11699;SDS011;5906;51.660;6.674;2024-03-08T14:18:41;25.23;;;15.63;;
11699;SDS011;5906;51.660;6.674;2024-03-08T14:21:08;28.93;;;15.20;;
11699;SDS011;5906;51.660;6.674;2024-03-08T14:23:36;22.27;;;15.43;;
11699;SDS011;5906;51.660;6.674;2024-03-08T14:26:03;27.73;;;16.17;;
11699;SDS011;5906;51.660;6.674;2024-03-08T14:28:33;32.03;;;17.57;;
11699;SDS011;5906;51.660;6.674;2024-03-08T14:31:00;25.50;;;16.10;;
11699;SDS011;5906;51.660;6.674;2024-03-08T14:33:33;23.50;;;14.00;;
11699;SDS011;5906;51.660;6.674;2024-03-08T14:36:00;19.67;;;14.90;;
11699;SDS011;5906;51.660;6.674;2024-03-08T14:38:27;30.10;;;16.20;;
11699;SDS011;5906;51.660;6.674;2024-03-08T14:40:55;24.30;;;16.43;;
11699;SDS011;5906;51.660;6.674;2024-03-08T14:43:22;25.57;;;15.77;;
11699;SDS011;5906;51.660;6.674;2024-03-08T14:45:49;26.53;;;15.87;;
11699;SDS011;5906;51.660;6.674;2024-03-08T14:48:17;23.47;;;15.47;;
11699;SDS011;5906;51.660;6.674;2024-03-08T14:50:44;32.67;;;17.97;;
11699;SDS011;5906;51.660;6.674;2024-03-08T14:53:13;24.77;;;16.90;;
11699;SDS011;5906;51.660;6.674;2024-03-08T14:55:42;31.40;;;17.40;;